createdAt,value
2018-06-19T00:00:37.355Z,0
2018-06-19T00:01:45.413Z,0
2018-06-19T00:02:53.480Z,0
2018-06-19T00:04:01.560Z,0
2018-06-19T00:05:09.616Z,0
2018-06-19T00:06:17.663Z,0
2018-06-19T00:07:25.749Z,0
2018-06-19T00:08:33.815Z,0
2018-06-19T00:09:41.869Z,0
2018-06-19T00:10:49.943Z,0
2018-06-19T00:11:58.018Z,0
2018-06-19T00:13:06.073Z,0
2018-06-19T00:14:14.137Z,0
2018-06-19T00:15:22.207Z,0
2018-06-19T00:16:30.303Z,0
2018-06-19T00:17:38.345Z,0
2018-06-19T00:18:46.396Z,0
2018-06-19T00:19:54.463Z,0
2018-06-19T00:21:02.529Z,0
2018-06-19T00:22:10.611Z,0
2018-06-19T00:23:18.654Z,0
2018-06-19T00:24:26.721Z,0
2018-06-19T00:25:34.793Z,0
2018-06-19T00:26:42.838Z,0
2018-06-19T00:27:50.922Z,0
2018-06-19T00:28:58.989Z,0
2018-06-19T00:30:07.043Z,0
2018-06-19T00:31:15.118Z,0
2018-06-19T00:32:23.153Z,0
2018-06-19T00:33:31.241Z,0
2018-06-19T00:34:39.344Z,0
2018-06-19T00:35:47.381Z,0
2018-06-19T00:36:55.442Z,0
2018-06-19T00:38:03.507Z,0
2018-06-19T00:39:11.563Z,0
2018-06-19T00:40:19.637Z,0
2018-06-19T00:41:27.688Z,0
2018-06-19T00:42:35.763Z,0
2018-06-19T00:43:43.832Z,0
2018-06-19T00:44:51.896Z,0
2018-06-19T00:45:59.962Z,0
2018-06-19T00:47:08.020Z,0
2018-06-19T00:48:16.088Z,0
2018-06-19T00:49:24.164Z,0
2018-06-19T00:50:32.215Z,0
2018-06-19T00:51:40.286Z,0
2018-06-19T00:52:48.339Z,0
2018-06-19T00:53:56.420Z,0
2018-06-19T00:55:04.473Z,0
2018-06-19T00:56:12.515Z,0
2018-06-19T00:57:20.618Z,0
2018-06-19T00:58:28.676Z,0
2018-06-19T00:59:36.734Z,0
2018-06-19T01:00:44.814Z,0
2018-06-19T01:01:52.839Z,0
2018-06-19T01:03:00.932Z,0
2018-06-19T01:04:09.001Z,0
2018-06-19T01:05:17.070Z,0
2018-06-19T01:06:25.125Z,0
2018-06-19T01:07:33.177Z,0
2018-06-19T01:08:41.263Z,0
2018-06-19T01:09:49.328Z,0
2018-06-19T01:10:57.387Z,0
2018-06-19T01:12:05.464Z,0
2018-06-19T01:13:13.517Z,0
2018-06-19T01:14:21.588Z,0
2018-06-19T01:15:29.652Z,0
2018-06-19T01:16:37.719Z,0
2018-06-19T01:17:45.782Z,0
2018-06-19T01:18:53.852Z,0
2018-06-19T01:20:01.916Z,0
2018-06-19T01:21:09.982Z,0
2018-06-19T01:22:18.043Z,0
2018-06-19T01:23:26.084Z,0
2018-06-19T01:24:34.169Z,0
2018-06-19T01:25:42.228Z,0
2018-06-19T01:26:50.316Z,0
2018-06-19T01:27:58.378Z,0
2018-06-19T01:29:06.443Z,0
2018-06-19T01:30:14.514Z,0
2018-06-19T01:31:22.548Z,0
2018-06-19T01:32:30.631Z,0
2018-06-19T01:33:38.694Z,0
2018-06-19T01:34:46.766Z,0
2018-06-19T01:35:54.828Z,0
2018-06-19T01:37:02.870Z,0
2018-06-19T01:38:11.050Z,0
2018-06-19T01:39:19.022Z,0
2018-06-19T01:40:27.071Z,0
2018-06-19T01:41:35.160Z,0
2018-06-19T01:42:43.188Z,0
2018-06-19T01:43:51.292Z,0
2018-06-19T01:44:59.350Z,0
2018-06-19T01:46:07.413Z,0
2018-06-19T01:47:15.482Z,0
2018-06-19T01:48:23.550Z,0
2018-06-19T01:49:31.610Z,0
2018-06-19T01:50:39.690Z,0
2018-06-19T01:51:47.741Z,0
2018-06-19T01:52:55.838Z,0
2018-06-19T01:54:03.914Z,0
2018-06-19T01:55:11.987Z,0
2018-06-19T01:56:20.038Z,0
2018-06-19T01:57:28.097Z,0
2018-06-19T01:58:36.164Z,0
2018-06-19T01:59:44.240Z,0
2018-06-19T02:00:52.288Z,0
2018-06-19T02:02:00.378Z,0
2018-06-19T02:03:08.431Z,0
2018-06-19T02:04:16.486Z,0
2018-06-19T02:05:24.558Z,0
2018-06-19T02:06:32.607Z,0
2018-06-19T02:07:40.688Z,0
2018-06-19T02:08:48.733Z,0
2018-06-19T02:09:56.827Z,0
2018-06-19T02:11:04.896Z,0
2018-06-19T02:12:12.920Z,0
2018-06-19T02:13:21.028Z,0
2018-06-19T02:14:29.090Z,0
2018-06-19T02:15:37.164Z,0
2018-06-19T02:16:45.215Z,0
2018-06-19T02:17:53.283Z,0
2018-06-19T02:19:01.362Z,0
2018-06-19T02:20:09.421Z,0
2018-06-19T02:21:17.472Z,0
2018-06-19T02:22:25.550Z,0
2018-06-19T02:23:33.620Z,0
2018-06-19T02:24:41.677Z,0
2018-06-19T02:25:49.741Z,0
2018-06-19T02:26:57.814Z,0
2018-06-19T02:28:05.867Z,0
2018-06-19T02:29:13.936Z,0
2018-06-19T02:30:22.006Z,0
2018-06-19T02:31:30.064Z,0
2018-06-19T02:32:38.144Z,0
2018-06-19T02:33:46.209Z,0
2018-06-19T02:34:54.272Z,0
2018-06-19T02:36:02.336Z,0
2018-06-19T02:37:10.392Z,0
2018-06-19T02:38:18.474Z,0
2018-06-19T02:39:26.534Z,0
2018-06-19T02:40:34.634Z,0
2018-06-19T02:41:42.636Z,0
2018-06-19T02:42:50.750Z,0
2018-06-19T02:43:58.823Z,0
2018-06-19T02:45:06.872Z,0
2018-06-19T02:46:14.945Z,0
2018-06-19T02:47:22.986Z,0
2018-06-19T02:48:31.066Z,0
2018-06-19T02:49:39.140Z,0
2018-06-19T02:50:47.192Z,0
2018-06-19T02:51:55.270Z,0
2018-06-19T02:53:03.331Z,0
2018-06-19T02:54:11.395Z,0
2018-06-19T02:55:19.465Z,0
2018-06-19T02:56:27.532Z,0
2018-06-19T02:57:35.594Z,0
2018-06-19T02:58:43.666Z,0
2018-06-19T02:59:51.745Z,0
2018-06-19T03:00:59.812Z,0
2018-06-19T03:02:07.858Z,0
2018-06-19T03:03:15.943Z,0
2018-06-19T03:04:24.008Z,0
2018-06-19T03:05:32.070Z,0
2018-06-19T03:06:40.122Z,0
2018-06-19T03:07:48.190Z,0
2018-06-19T03:08:56.263Z,0
2018-06-19T03:10:04.317Z,0
2018-06-19T03:11:12.372Z,0
2018-06-19T03:12:20.451Z,0
2018-06-19T03:13:28.514Z,0
2018-06-19T03:14:36.586Z,0
2018-06-19T03:15:44.658Z,0
2018-06-19T03:16:52.687Z,0
2018-06-19T03:18:00.781Z,5
2018-06-19T03:19:08.846Z,5
2018-06-19T03:20:16.914Z,5
2018-06-19T03:21:24.981Z,5
2018-06-19T03:22:33.011Z,5
2018-06-19T03:23:41.111Z,5
2018-06-19T03:24:49.180Z,5
2018-06-19T03:25:57.242Z,5
2018-06-19T03:27:05.314Z,10
2018-06-19T03:28:13.381Z,10
2018-06-19T03:29:21.439Z,10
2018-06-19T03:30:29.663Z,10
2018-06-19T03:31:37.572Z,10
2018-06-19T03:32:45.657Z,10
2018-06-19T03:33:53.689Z,15
2018-06-19T03:35:01.762Z,15
2018-06-19T03:36:09.816Z,15
2018-06-19T03:37:17.902Z,15
2018-06-19T03:38:25.957Z,15
2018-06-19T03:39:34.032Z,20
2018-06-19T03:40:42.100Z,20
2018-06-19T03:41:50.191Z,20
2018-06-19T03:42:58.218Z,20
2018-06-19T03:44:06.267Z,20
2018-06-19T03:45:14.364Z,20
2018-06-19T03:46:22.433Z,25
2018-06-19T03:47:30.486Z,25
2018-06-19T03:48:38.534Z,25
2018-06-19T03:49:46.622Z,30
2018-06-19T03:50:54.699Z,30
2018-06-19T03:52:02.720Z,35
2018-06-19T03:53:10.807Z,35
2018-06-19T03:54:18.872Z,35
2018-06-19T03:55:26.948Z,40
2018-06-19T03:56:35.009Z,40
2018-06-19T03:57:43.053Z,40
2018-06-19T03:58:51.145Z,40
2018-06-19T03:59:59.239Z,40
2018-06-19T04:01:07.296Z,45
2018-06-19T04:02:15.336Z,45
2018-06-19T04:03:23.401Z,50
2018-06-19T04:04:31.521Z,50
2018-06-19T04:05:39.536Z,50
2018-06-19T04:06:47.598Z,55
2018-06-19T04:07:55.669Z,55
2018-06-19T04:09:03.732Z,60
2018-06-19T04:10:11.797Z,60
2018-06-19T04:11:19.866Z,60
2018-06-19T04:12:27.929Z,65
2018-06-19T04:13:36.004Z,65
2018-06-19T04:14:44.423Z,70
2018-06-19T04:15:52.130Z,75
2018-06-19T04:17:00.200Z,75
2018-06-19T04:18:08.266Z,75
2018-06-19T04:19:16.333Z,80
2018-06-19T04:20:24.401Z,85
2018-06-19T04:21:32.426Z,85
2018-06-19T04:22:40.629Z,80
2018-06-19T04:23:48.607Z,80
2018-06-19T04:24:56.664Z,80
2018-06-19T04:26:04.720Z,85
2018-06-19T04:27:12.768Z,90
2018-06-19T04:28:20.890Z,90
2018-06-19T04:29:28.933Z,90
2018-06-19T04:30:36.992Z,85
2018-06-19T04:31:45.077Z,85
2018-06-19T04:32:53.104Z,85
2018-06-19T04:34:01.185Z,80
2018-06-19T04:35:09.685Z,85
2018-06-19T04:36:17.505Z,80
2018-06-19T04:37:25.409Z,80
2018-06-19T04:38:33.505Z,75
2018-06-19T04:39:41.536Z,75
2018-06-19T04:40:49.680Z,75
2018-06-19T04:41:57.663Z,80
2018-06-19T04:43:05.957Z,80
2018-06-19T04:44:13.787Z,85
2018-06-19T04:45:21.867Z,85
2018-06-19T04:46:29.933Z,95
2018-06-19T04:47:37.989Z,100
2018-06-19T04:48:47.366Z,110
2018-06-19T04:49:54.175Z,120
2018-06-19T04:51:02.184Z,125
2018-06-19T04:52:10.330Z,135
2018-06-19T04:53:20.110Z,140
2018-06-19T04:54:26.519Z,155
2018-06-19T04:55:35.053Z,155
2018-06-19T04:56:43.102Z,155
2018-06-19T04:57:52.183Z,160
2018-06-19T04:58:58.658Z,155
2018-06-19T05:00:06.722Z,155
2018-06-19T05:03:30.930Z,150
2018-06-19T05:04:38.989Z,140
2018-06-19T05:05:50.597Z,135
2018-06-19T05:06:55.121Z,130
2018-06-19T05:08:03.193Z,120
2018-06-19T05:09:11.268Z,115
2018-06-19T05:10:19.325Z,110
2018-06-19T05:11:27.400Z,110
2018-06-19T05:12:35.459Z,115
2018-06-19T05:13:43.544Z,130
2018-06-19T05:14:51.596Z,150
2018-06-19T05:15:59.664Z,155
2018-06-19T05:17:07.726Z,145
2018-06-19T05:18:15.836Z,130
2018-06-19T05:19:23.866Z,115
2018-06-19T05:20:31.946Z,110
2018-06-19T05:21:40.005Z,115
2018-06-19T05:22:48.081Z,125
2018-06-19T05:23:56.123Z,135
2018-06-19T05:25:04.205Z,145
2018-06-19T05:26:12.269Z,150
2018-06-19T05:27:20.339Z,155
2018-06-19T05:28:28.406Z,165
2018-06-19T05:29:36.449Z,170
2018-06-19T05:30:44.550Z,175
2018-06-19T05:31:52.613Z,180
2018-06-19T05:33:00.670Z,200
2018-06-19T05:34:08.748Z,220
2018-06-19T05:35:16.797Z,245
2018-06-19T05:36:24.885Z,260
2018-06-19T05:37:32.962Z,280
2018-06-19T05:38:41.028Z,295
2018-06-19T05:39:49.080Z,305
2018-06-19T05:40:57.137Z,320
2018-06-19T05:42:05.217Z,345
2018-06-19T05:43:13.319Z,355
2018-06-19T05:44:21.367Z,370
2018-06-19T05:46:46.552Z,415
2018-06-19T05:47:54.648Z,415
2018-06-19T05:49:02.736Z,400
2018-06-19T05:50:10.787Z,375
2018-06-19T05:51:23.758Z,350
2018-06-19T05:52:31.779Z,340
2018-06-19T05:53:39.872Z,350
2018-06-19T05:54:47.909Z,370
2018-06-19T05:55:55.994Z,390
2018-06-19T05:57:05.479Z,400
2018-06-19T05:58:16.343Z,395
2018-06-19T05:59:24.427Z,385
2018-06-19T06:00:32.505Z,385
2018-06-19T06:01:40.576Z,380
2018-06-19T06:02:48.639Z,385
2018-06-19T06:03:56.698Z,375
2018-06-19T06:05:04.789Z,355
2018-06-19T06:06:12.869Z,345
2018-06-19T06:07:20.908Z,345
2018-06-19T06:08:29.988Z,345
2018-06-19T06:09:38.069Z,345
2018-06-19T06:10:46.111Z,350
2018-06-19T06:11:54.207Z,365
2018-06-19T06:13:02.264Z,400
2018-06-19T06:14:10.332Z,405
2018-06-19T06:15:18.667Z,380
2018-06-19T06:16:26.545Z,360
2018-06-19T06:17:34.549Z,355
2018-06-19T06:18:42.655Z,355
2018-06-19T06:19:50.701Z,360
2018-06-19T06:20:58.775Z,375
2018-06-19T06:22:06.832Z,365
2018-06-19T06:23:16.494Z,345
2018-06-19T06:24:24.783Z,345
2018-06-19T06:25:32.853Z,335
2018-06-19T06:26:44.347Z,345
2018-06-19T06:27:52.416Z,325
2018-06-19T06:29:00.476Z,325
2018-06-19T06:30:08.550Z,340
2018-06-19T06:32:24.676Z,335
2018-06-19T06:33:32.768Z,320
2018-06-19T06:34:45.078Z,320
2018-06-19T06:35:53.149Z,325
2018-06-19T06:37:01.214Z,320
2018-06-19T06:38:09.382Z,310
2018-06-19T06:39:17.347Z,300
2018-06-19T06:40:33.287Z,305
2018-06-19T06:41:40.756Z,315
2018-06-19T06:42:48.813Z,325
2018-06-19T06:43:56.862Z,330
2018-06-19T06:45:07.586Z,355
2018-06-19T06:46:16.653Z,400
2018-06-19T06:47:24.918Z,435
2018-06-19T06:48:32.794Z,430
2018-06-19T06:49:40.862Z,430
2018-06-19T06:50:48.931Z,460
2018-06-19T06:51:56.978Z,515
2018-06-19T06:53:05.070Z,545
2018-06-19T06:54:13.136Z,590
2018-06-19T06:55:21.205Z,580
2018-06-19T06:56:31.904Z,540
2018-06-19T06:57:39.968Z,495
2018-06-19T06:58:48.041Z,455
2018-06-19T06:59:56.087Z,440
2018-06-19T07:01:08.438Z,455
2018-06-19T07:02:16.452Z,475
2018-06-19T07:03:24.543Z,490
2018-06-19T07:04:32.614Z,510
2018-06-19T07:05:40.717Z,550
2018-06-19T07:06:48.762Z,600
2018-06-19T07:07:56.805Z,625
2018-06-19T07:09:05.018Z,645
2018-06-19T07:10:13.031Z,650
2018-06-19T07:11:21.043Z,630
2018-06-19T07:12:29.118Z,615
2018-06-19T07:13:37.181Z,610
2018-06-19T07:14:47.873Z,650
2018-06-19T07:15:56.028Z,705
2018-06-19T07:17:08.253Z,675
2018-06-19T07:18:17.730Z,660
2018-06-19T07:19:26.001Z,595
2018-06-19T07:20:34.070Z,585
2018-06-19T07:21:42.145Z,645
2018-06-19T07:22:50.227Z,590
2018-06-19T07:23:58.291Z,595
2018-06-19T07:25:06.329Z,615
2018-06-19T07:26:14.447Z,975
2018-06-19T07:27:22.512Z,1310
2018-06-19T07:28:30.578Z,1175
2018-06-19T07:29:55.884Z,1950
2018-06-19T07:30:46.759Z,2145
2018-06-19T07:31:54.843Z,2060
2018-06-19T07:33:02.842Z,2070
2018-06-19T07:34:10.947Z,2005
2018-06-19T07:35:19.015Z,1995
2018-06-19T07:36:27.080Z,1990
2018-06-19T07:37:35.167Z,1940
2018-06-19T07:38:43.238Z,1970
2018-06-19T07:39:51.331Z,2030
2018-06-19T07:40:59.396Z,2045
2018-06-19T07:42:07.483Z,2270
2018-06-19T07:43:15.557Z,2310
2018-06-19T07:44:23.635Z,2315
2018-06-19T07:45:31.711Z,2370
2018-06-19T07:46:39.787Z,2440
2018-06-19T07:47:47.869Z,2470
2018-06-19T07:48:55.951Z,2415
2018-06-19T07:50:04.042Z,2420
2018-06-19T07:51:12.114Z,2485
2018-06-19T07:52:23.598Z,2440
2018-06-19T07:53:31.343Z,2530
2018-06-19T07:54:38.371Z,2640
2018-06-19T07:55:46.400Z,2575
2018-06-19T07:56:54.513Z,2465
2018-06-19T07:58:02.606Z,2605
2018-06-19T07:59:10.691Z,2595
2018-06-19T08:00:18.764Z,2510
2018-06-19T08:01:26.829Z,2380
2018-06-19T08:02:34.937Z,2495
2018-06-19T08:03:42.990Z,570
2018-06-19T08:04:51.091Z,470
2018-06-19T08:05:59.179Z,410
2018-06-19T08:07:07.260Z,375
2018-06-19T08:08:15.347Z,365
2018-06-19T08:09:23.429Z,380
2018-06-19T08:10:31.504Z,435
2018-06-19T08:11:39.600Z,490
2018-06-19T08:12:47.674Z,560
2018-06-19T08:13:55.753Z,610
2018-06-19T08:15:03.836Z,660
2018-06-19T08:16:11.898Z,2110
2018-06-19T08:17:19.999Z,1645
2018-06-19T08:18:28.066Z,805
2018-06-19T08:19:36.132Z,650
2018-06-19T08:20:44.215Z,510
2018-06-19T08:21:55.344Z,495
2018-06-19T08:23:00.396Z,475
2018-06-19T08:24:08.475Z,460
2018-06-19T08:25:16.512Z,440
2018-06-19T08:26:31.658Z,440
2018-06-19T08:27:32.693Z,490
2018-06-19T08:28:40.771Z,560
2018-06-19T08:29:48.861Z,580
2018-06-19T08:30:56.905Z,595
2018-06-19T08:32:04.999Z,610
2018-06-19T08:33:13.079Z,640
2018-06-19T08:34:21.159Z,720
2018-06-19T08:35:29.247Z,790
2018-06-19T08:36:37.318Z,765
2018-06-19T08:37:45.399Z,830
2018-06-19T08:38:53.457Z,3050
2018-06-19T08:40:01.572Z,3260
2018-06-19T08:41:09.619Z,3250
2018-06-19T08:42:17.700Z,3445
2018-06-19T08:43:25.769Z,3335
2018-06-19T08:44:35.264Z,3205
2018-06-19T08:45:41.925Z,2730
2018-06-19T08:46:50.006Z,3170
2018-06-19T08:47:58.122Z,1830
2018-06-19T08:49:06.153Z,1080
2018-06-19T08:50:14.233Z,560
2018-06-19T08:51:22.329Z,480
2018-06-19T08:52:30.406Z,435
2018-06-19T08:53:38.486Z,405
2018-06-19T08:54:46.536Z,390
2018-06-19T08:55:54.681Z,390
2018-06-19T08:57:02.745Z,410
2018-06-19T08:58:10.820Z,435
2018-06-19T08:59:18.886Z,470
2018-06-19T09:00:26.952Z,515
2018-06-19T09:01:35.044Z,535
2018-06-19T09:02:43.115Z,555
2018-06-19T09:03:51.195Z,850
2018-06-19T09:04:59.285Z,1285
2018-06-19T09:06:07.359Z,3030
2018-06-19T09:07:15.446Z,2985
2018-06-19T09:08:23.519Z,3070
2018-06-19T09:09:31.586Z,2990
2018-06-19T09:10:39.665Z,3005
2018-06-19T09:11:47.749Z,2965
2018-06-19T09:12:55.865Z,3270
2018-06-19T09:14:03.910Z,3110
2018-06-19T09:15:11.977Z,3040
2018-06-19T09:16:20.065Z,2950
2018-06-19T09:17:28.129Z,3175
2018-06-19T09:18:36.200Z,1820
2018-06-19T09:19:44.314Z,1105
2018-06-19T09:20:52.390Z,2375
2018-06-19T09:22:00.467Z,1025
2018-06-19T09:23:08.562Z,1305
2018-06-19T09:24:16.614Z,1585
2018-06-19T09:25:24.705Z,1040
2018-06-19T09:26:32.804Z,1065
2018-06-19T09:27:40.892Z,1045
2018-06-19T09:28:48.975Z,1050
2018-06-19T09:29:57.092Z,930
2018-06-19T09:31:05.143Z,965
2018-06-19T09:32:13.204Z,990
2018-06-19T09:33:21.292Z,1010
2018-06-19T09:34:29.361Z,990
2018-06-19T09:35:37.448Z,1005
2018-06-19T09:36:45.517Z,1040
2018-06-19T09:37:53.594Z,980
2018-06-19T09:39:01.678Z,820
2018-06-19T09:40:09.759Z,705
2018-06-19T09:41:17.850Z,615
2018-06-19T09:42:25.922Z,545
2018-06-19T09:43:34.015Z,555
2018-06-19T09:44:42.090Z,530
2018-06-19T09:45:50.173Z,500
2018-06-19T09:46:58.277Z,495
2018-06-19T09:48:06.296Z,470
2018-06-19T09:49:14.406Z,480
2018-06-19T09:50:22.469Z,525
2018-06-19T09:51:30.557Z,535
2018-06-19T09:52:38.625Z,555
2018-06-19T09:53:46.724Z,575
2018-06-19T09:54:54.769Z,590
2018-06-19T09:56:02.853Z,605
2018-06-19T09:57:10.945Z,630
2018-06-19T09:58:19.021Z,655
2018-06-19T09:59:27.082Z,650
2018-06-19T10:00:35.161Z,610
2018-06-19T10:01:43.243Z,615
2018-06-19T10:02:51.311Z,580
2018-06-19T10:03:59.398Z,545
2018-06-19T10:05:07.475Z,545
2018-06-19T10:06:15.561Z,560
2018-06-19T10:07:23.609Z,520
2018-06-19T10:08:31.691Z,510
2018-06-19T10:09:39.776Z,500
2018-06-19T10:10:47.853Z,485
2018-06-19T10:11:55.940Z,450
2018-06-19T10:13:04.006Z,445
2018-06-19T10:14:12.083Z,460
2018-06-19T10:15:20.170Z,445
2018-06-19T10:16:28.228Z,410
2018-06-19T10:17:36.278Z,375
2018-06-19T10:18:44.375Z,355
2018-06-19T10:19:52.460Z,340
2018-06-19T10:21:00.533Z,335
2018-06-19T10:22:08.594Z,340
2018-06-19T10:23:16.650Z,360
2018-06-19T10:24:24.760Z,370
2018-06-19T10:25:32.821Z,385
2018-06-19T10:26:40.897Z,405
2018-06-19T10:27:48.977Z,420
2018-06-19T10:28:57.048Z,445
2018-06-19T10:30:05.133Z,450
2018-06-19T10:31:13.205Z,420
2018-06-19T10:32:21.282Z,410
2018-06-19T10:33:29.357Z,395
2018-06-19T10:34:37.423Z,390
2018-06-19T10:35:45.496Z,415
2018-06-19T10:36:53.575Z,420
2018-06-19T10:38:01.660Z,430
2018-06-19T10:39:09.716Z,450
2018-06-19T10:40:17.880Z,445
2018-06-19T10:41:25.864Z,455
2018-06-19T10:42:33.950Z,490
2018-06-19T10:43:42.030Z,570
2018-06-19T10:44:50.092Z,605
2018-06-19T10:45:58.184Z,650
2018-06-19T10:47:06.225Z,700
2018-06-19T10:48:14.306Z,715
2018-06-19T10:49:22.386Z,665
2018-06-19T10:50:30.456Z,615
2018-06-19T10:51:38.536Z,605
2018-06-19T10:52:46.613Z,655
2018-06-19T10:53:54.732Z,685
2018-06-19T10:55:02.742Z,700
2018-06-19T10:56:10.846Z,695
2018-06-19T10:57:18.912Z,665
2018-06-19T10:58:26.971Z,655
2018-06-19T10:59:35.095Z,645
2018-06-19T11:00:43.145Z,650
2018-06-19T11:01:51.220Z,610
2018-06-19T11:02:59.308Z,550
2018-06-19T11:04:07.358Z,485
2018-06-19T11:05:15.458Z,440
2018-06-19T11:06:23.500Z,380
2018-06-19T11:07:31.598Z,375
2018-06-19T11:08:39.661Z,375
2018-06-19T11:09:47.748Z,370
2018-06-19T11:10:55.813Z,370
2018-06-19T11:12:03.883Z,365
2018-06-19T11:13:12.718Z,365
2018-06-19T11:14:20.054Z,390
2018-06-19T11:15:28.111Z,415
2018-06-19T11:16:36.175Z,445
2018-06-19T11:17:44.259Z,455
2018-06-19T11:18:52.343Z,475
2018-06-19T11:20:00.486Z,480
2018-06-19T11:21:08.488Z,505
2018-06-19T11:22:16.528Z,520
2018-06-19T11:23:24.632Z,525
2018-06-19T11:24:32.705Z,495
2018-06-19T11:25:40.804Z,500
2018-06-19T11:26:48.862Z,535
2018-06-19T11:27:56.911Z,555
2018-06-19T11:29:05.132Z,545
2018-06-19T11:30:13.090Z,535
2018-06-19T11:31:21.152Z,565
2018-06-19T11:32:29.239Z,610
2018-06-19T11:33:37.296Z,600
2018-06-19T11:34:45.373Z,560
2018-06-19T11:35:53.455Z,555
2018-06-19T11:37:01.529Z,550
2018-06-19T11:38:09.602Z,535
2018-06-19T11:39:17.666Z,495
2018-06-19T11:40:25.749Z,450
2018-06-19T11:41:33.822Z,440
2018-06-19T11:42:41.917Z,430
2018-06-19T11:43:49.970Z,410
2018-06-19T11:44:58.052Z,415
2018-06-19T11:46:06.120Z,405
2018-06-19T11:47:14.196Z,415
2018-06-19T11:48:22.270Z,410
2018-06-19T11:49:30.337Z,390
2018-06-19T11:50:38.429Z,375
2018-06-19T11:51:46.469Z,360
2018-06-19T11:52:54.574Z,350
2018-06-19T11:54:02.651Z,360
2018-06-19T11:55:10.731Z,360
2018-06-19T11:56:18.792Z,350
2018-06-19T11:57:26.839Z,370
2018-06-19T11:58:34.948Z,405
2018-06-19T11:59:43.044Z,430
2018-06-19T12:00:51.091Z,425
2018-06-19T12:01:59.166Z,415
2018-06-19T12:03:07.245Z,410
2018-06-19T12:04:15.314Z,395
2018-06-19T12:05:23.399Z,390
2018-06-19T12:06:31.470Z,350
2018-06-19T12:07:39.544Z,300
2018-06-19T12:08:47.620Z,240
2018-06-19T12:09:55.698Z,215
2018-06-19T12:11:03.761Z,215
2018-06-19T12:12:11.852Z,225
2018-06-19T12:13:19.931Z,230
2018-06-19T12:14:27.982Z,250
2018-06-19T12:15:36.045Z,265
2018-06-19T12:16:44.125Z,280
2018-06-19T12:17:52.207Z,295
2018-06-19T12:19:00.283Z,315
2018-06-19T12:20:08.425Z,330
2018-06-19T12:21:16.410Z,345
2018-06-19T12:22:24.518Z,360
2018-06-19T12:23:32.585Z,415
2018-06-19T12:24:40.665Z,470
2018-06-19T12:25:48.730Z,530
2018-06-19T12:26:56.773Z,520
2018-06-19T12:28:04.879Z,505
2018-06-19T12:29:12.952Z,480
2018-06-19T12:30:21.024Z,470
2018-06-19T12:31:29.107Z,480
2018-06-19T12:32:37.176Z,530
2018-06-19T12:33:45.261Z,560
2018-06-19T12:34:53.305Z,560
2018-06-19T12:36:01.397Z,535
2018-06-19T12:37:09.465Z,510
2018-06-19T12:38:17.542Z,480
2018-06-19T12:39:25.642Z,450
2018-06-19T12:40:33.700Z,455
2018-06-19T12:41:41.829Z,485
2018-06-19T12:42:49.849Z,495
2018-06-19T12:43:57.919Z,520
2018-06-19T12:45:05.986Z,565
2018-06-19T12:46:14.056Z,585
2018-06-19T12:47:22.140Z,555
2018-06-19T12:48:30.217Z,515
2018-06-19T12:49:38.287Z,480
2018-06-19T12:50:46.339Z,445
2018-06-19T12:51:54.444Z,440
2018-06-19T12:53:02.552Z,450
2018-06-19T12:54:10.592Z,455
2018-06-19T12:55:18.672Z,435
2018-06-19T12:56:26.703Z,400
2018-06-19T12:57:34.811Z,390
2018-06-19T12:58:42.890Z,350
2018-06-19T12:59:50.976Z,295
2018-06-19T13:00:59.016Z,245
2018-06-19T13:02:07.105Z,225
2018-06-19T13:03:15.197Z,200
2018-06-19T13:04:23.272Z,195
2018-06-19T13:05:31.336Z,215
2018-06-19T13:06:39.412Z,220
2018-06-19T13:07:47.498Z,200
2018-06-19T13:08:55.560Z,225
2018-06-19T13:10:03.634Z,240
2018-06-19T13:11:11.717Z,250
2018-06-19T13:12:19.812Z,260
2018-06-19T13:13:27.862Z,270
2018-06-19T13:14:35.918Z,275
2018-06-19T13:15:44.007Z,290
2018-06-19T13:16:52.088Z,315
2018-06-19T13:18:00.152Z,325
2018-06-19T13:19:08.252Z,345
2018-06-19T13:20:16.268Z,340
2018-06-19T13:21:24.386Z,340
2018-06-19T13:22:32.441Z,330
2018-06-19T13:23:40.563Z,315
2018-06-19T13:24:48.585Z,315
2018-06-19T13:25:56.641Z,325
2018-06-19T13:27:04.741Z,330
2018-06-19T13:28:12.813Z,330
2018-06-19T13:29:20.931Z,330
2018-06-19T13:30:28.973Z,345
2018-06-19T13:31:37.002Z,355
2018-06-19T13:32:45.114Z,370
2018-06-19T13:33:53.181Z,370
2018-06-19T13:35:01.259Z,340
2018-06-19T13:36:09.333Z,330
2018-06-19T13:37:17.400Z,305
2018-06-19T13:38:25.480Z,260
2018-06-19T13:39:33.574Z,255
2018-06-19T13:40:41.621Z,250
2018-06-19T13:41:49.702Z,265
2018-06-19T13:42:57.771Z,300
2018-06-19T13:44:05.855Z,320
2018-06-19T13:45:13.926Z,325
2018-06-19T13:46:22.008Z,320
2018-06-19T13:47:30.069Z,320
2018-06-19T13:48:38.198Z,300
2018-06-19T13:49:46.255Z,275
2018-06-19T13:50:54.294Z,255
2018-06-19T13:52:02.364Z,230
2018-06-19T13:53:10.454Z,220
2018-06-19T13:54:18.527Z,215
2018-06-19T13:55:26.563Z,205
2018-06-19T13:56:34.666Z,205
2018-06-19T13:57:42.745Z,215
2018-06-19T13:58:50.802Z,230
2018-06-19T13:59:58.882Z,270
2018-06-19T14:01:06.942Z,295
2018-06-19T14:02:15.046Z,295
2018-06-19T14:03:23.110Z,275
2018-06-19T14:04:31.177Z,275
2018-06-19T14:05:39.244Z,250
2018-06-19T14:06:47.336Z,235
2018-06-19T14:07:55.538Z,245
2018-06-19T14:09:03.460Z,210
2018-06-19T14:10:11.543Z,215
2018-06-19T14:11:19.631Z,235
2018-06-19T14:12:27.694Z,235
2018-06-19T14:13:35.772Z,255
2018-06-19T14:14:43.846Z,255
2018-06-19T14:15:51.908Z,245
2018-06-19T14:16:59.986Z,240
2018-06-19T14:18:08.054Z,235
2018-06-19T14:19:16.164Z,230
2018-06-19T14:20:24.229Z,215
2018-06-19T14:21:32.299Z,200
2018-06-19T14:22:40.360Z,195
2018-06-19T14:23:48.429Z,200
2018-06-19T14:24:56.485Z,205
2018-06-19T14:26:04.593Z,200
2018-06-19T14:27:12.653Z,205
2018-06-19T14:28:20.748Z,205
2018-06-19T14:29:28.790Z,210
2018-06-19T14:30:36.859Z,215
2018-06-19T14:31:44.929Z,220
2018-06-19T14:32:53.096Z,220
2018-06-19T14:34:01.096Z,220
2018-06-19T14:35:09.167Z,215
2018-06-19T14:36:17.239Z,205
2018-06-19T14:37:25.308Z,195
2018-06-19T14:38:33.382Z,185
2018-06-19T14:39:41.466Z,185
2018-06-19T14:40:49.539Z,185
2018-06-19T14:41:57.613Z,180
2018-06-19T14:43:05.696Z,180
2018-06-19T14:44:13.761Z,175
2018-06-19T14:45:21.830Z,175
2018-06-19T14:46:29.911Z,175
2018-06-19T14:47:37.979Z,185
2018-06-19T14:48:46.033Z,185
2018-06-19T14:49:54.158Z,220
2018-06-19T14:51:02.197Z,210
2018-06-19T14:52:10.282Z,195
2018-06-19T14:53:18.335Z,185
2018-06-19T14:54:26.381Z,185
2018-06-19T14:55:34.489Z,200
2018-06-19T14:56:42.563Z,205
2018-06-19T14:57:50.636Z,190
2018-06-19T14:58:58.707Z,190
2018-06-19T15:00:06.765Z,195
2018-06-19T15:01:14.860Z,180
2018-06-19T15:02:22.923Z,160
2018-06-19T15:03:30.998Z,150
2018-06-19T15:04:39.061Z,150
2018-06-19T15:05:47.129Z,165
2018-06-19T15:06:55.213Z,165
2018-06-19T15:08:03.293Z,165
2018-06-19T15:09:11.356Z,165
2018-06-19T15:10:19.503Z,165
2018-06-19T15:11:27.506Z,160
2018-06-19T15:12:35.579Z,160
2018-06-19T15:13:43.689Z,160
2018-06-19T15:14:51.724Z,155
2018-06-19T15:15:59.839Z,155
2018-06-19T15:17:07.876Z,155
2018-06-19T15:18:15.935Z,155
2018-06-19T15:19:24.028Z,155
2018-06-19T15:20:32.082Z,155
2018-06-19T15:21:40.154Z,150
2018-06-19T15:22:48.248Z,150
2018-06-19T15:23:56.283Z,150
2018-06-19T15:25:04.381Z,150
2018-06-19T15:26:12.446Z,150
2018-06-19T15:27:20.522Z,145
2018-06-19T15:28:28.612Z,145
2018-06-19T15:29:36.652Z,145
2018-06-19T15:30:44.750Z,145
2018-06-19T15:31:52.813Z,145
2018-06-19T15:33:00.897Z,145
2018-06-19T15:34:08.959Z,145
2018-06-19T15:35:17.026Z,150
2018-06-19T15:36:25.090Z,150
2018-06-19T15:37:33.184Z,150
2018-06-19T15:38:41.261Z,150
2018-06-19T15:39:49.335Z,155
2018-06-19T15:40:57.399Z,155
2018-06-19T15:42:05.464Z,160
2018-06-19T15:43:13.536Z,165
2018-06-19T15:44:21.606Z,165
2018-06-19T15:45:29.692Z,165
2018-06-19T15:46:37.756Z,165
2018-06-19T15:47:45.834Z,160
2018-06-19T15:48:53.902Z,160
2018-06-19T15:50:01.982Z,160
2018-06-19T15:51:10.080Z,160
2018-06-19T15:52:18.109Z,160
2018-06-19T15:53:26.198Z,160
2018-06-19T15:54:34.273Z,155
2018-06-19T15:55:42.351Z,155
2018-06-19T15:56:50.421Z,150